sensor_id;sensor_type;location;lat;lon;timestamp;temperature;humidity
25825;DHT22;13658;44.534;18.694;2023-04-24T00:00:23;11.70;99.90
25825;DHT22;13658;44.534;18.694;2023-04-24T00:02:49;11.80;99.90
25825;DHT22;13658;44.534;18.694;2023-04-24T00:05:16;11.80;99.90
25825;DHT22;13658;44.534;18.694;2023-04-24T00:07:44;11.80;99.90
25825;DHT22;13658;44.534;18.694;2023-04-24T00:10:11;11.80;99.90
25825;DHT22;13658;44.534;18.694;2023-04-24T00:12:37;11.70;99.90
25825;DHT22;13658;44.534;18.694;2023-04-24T00:15:04;11.70;99.90
25825;DHT22;13658;44.534;18.694;2023-04-24T00:17:30;11.70;99.90
25825;DHT22;13658;44.534;18.694;2023-04-24T00:19:56;11.50;99.90
25825;DHT22;13658;44.534;18.694;2023-04-24T00:22:27;11.40;99.90
25825;DHT22;13658;44.534;18.694;2023-04-24T00:24:53;11.30;99.90
25825;DHT22;13658;44.534;18.694;2023-04-24T00:27:19;11.30;99.90
25825;DHT22;13658;44.534;18.694;2023-04-24T00:29:46;11.10;99.90
25825;DHT22;13658;44.534;18.694;2023-04-24T00:32:12;11.00;99.90
25825;DHT22;13658;44.534;18.694;2023-04-24T00:34:38;10.90;99.90
25825;DHT22;13658;44.534;18.694;2023-04-24T00:37:04;10.90;99.90
25825;DHT22;13658;44.534;18.694;2023-04-24T00:39:31;10.90;99.90
25825;DHT22;13658;44.534;18.694;2023-04-24T00:41:57;10.80;99.90
25825;DHT22;13658;44.534;18.694;2023-04-24T00:44:23;10.70;99.90
25825;DHT22;13658;44.534;18.694;2023-04-24T00:46:50;10.90;99.90
25825;DHT22;13658;44.534;18.694;2023-04-24T00:49:21;11.00;99.90
25825;DHT22;13658;44.534;18.694;2023-04-24T00:51:47;11.00;99.90
25825;DHT22;13658;44.534;18.694;2023-04-24T00:54:15;10.90;99.90
25825;DHT22;13658;44.534;18.694;2023-04-24T00:56:42;10.70;99.90
25825;DHT22;13658;44.534;18.694;2023-04-24T00:59:09;10.60;99.90
25825;DHT22;13658;44.534;18.694;2023-04-24T01:01:36;10.70;99.90
25825;DHT22;13658;44.534;18.694;2023-04-24T01:04:03;10.50;99.90
25825;DHT22;13658;44.534;18.694;2023-04-24T01:06:29;10.50;99.90
25825;DHT22;13658;44.534;18.694;2023-04-24T01:08:58;10.40;99.90
25825;DHT22;13658;44.534;18.694;2023-04-24T01:11:25;10.30;99.90
25825;DHT22;13658;44.534;18.694;2023-04-24T01:13:51;10.20;99.90
25825;DHT22;13658;44.534;18.694;2023-04-24T01:16:17;10.20;99.90
25825;DHT22;13658;44.534;18.694;2023-04-24T01:18:46;10.30;99.90
25825;DHT22;13658;44.534;18.694;2023-04-24T01:21:14;10.20;99.90
25825;DHT22;13658;44.534;18.694;2023-04-24T01:23:46;10.20;99.90
25825;DHT22;13658;44.534;18.694;2023-04-24T01:26:13;10.20;99.90
25825;DHT22;13658;44.534;18.694;2023-04-24T01:28:40;10.20;99.90
25825;DHT22;13658;44.534;18.694;2023-04-24T01:31:06;10.30;99.90
25825;DHT22;13658;44.534;18.694;2023-04-24T01:33:32;10.30;99.90
25825;DHT22;13658;44.534;18.694;2023-04-24T01:35:59;10.40;99.90
25825;DHT22;13658;44.534;18.694;2023-04-24T01:38:25;10.60;99.90
25825;DHT22;13658;44.534;18.694;2023-04-24T01:40:53;10.50;99.90
25825;DHT22;13658;44.534;18.694;2023-04-24T01:43:19;10.60;99.90
25825;DHT22;13658;44.534;18.694;2023-04-24T01:45:45;10.50;99.90
25825;DHT22;13658;44.534;18.694;2023-04-24T01:48:12;10.40;99.90
25825;DHT22;13658;44.534;18.694;2023-04-24T01:50:39;10.50;99.90
25825;DHT22;13658;44.534;18.694;2023-04-24T01:53:05;10.50;99.90
25825;DHT22;13658;44.534;18.694;2023-04-24T01:55:31;10.50;99.90
25825;DHT22;13658;44.534;18.694;2023-04-24T01:57:59;10.50;99.90
25825;DHT22;13658;44.534;18.694;2023-04-24T02:00:26;10.50;99.90
25825;DHT22;13658;44.534;18.694;2023-04-24T02:02:52;10.40;99.90
25825;DHT22;13658;44.534;18.694;2023-04-24T02:05:18;10.30;99.90
25825;DHT22;13658;44.534;18.694;2023-04-24T02:07:44;10.30;99.90
25825;DHT22;13658;44.534;18.694;2023-04-24T02:10:11;10.20;99.90
25825;DHT22;13658;44.534;18.694;2023-04-24T02:12:41;10.10;99.90
25825;DHT22;13658;44.534;18.694;2023-04-24T02:15:07;10.10;99.90
25825;DHT22;13658;44.534;18.694;2023-04-24T02:17:36;9.90;99.90
25825;DHT22;13658;44.534;18.694;2023-04-24T02:20:04;9.80;99.90
25825;DHT22;13658;44.534;18.694;2023-04-24T02:22:32;9.60;99.90
25825;DHT22;13658;44.534;18.694;2023-04-24T02:25:07;9.60;99.90
25825;DHT22;13658;44.534;18.694;2023-04-24T02:27:34;9.50;99.90
25825;DHT22;13658;44.534;18.694;2023-04-24T02:30:00;9.40;99.90
25825;DHT22;13658;44.534;18.694;2023-04-24T02:32:26;9.50;99.90
25825;DHT22;13658;44.534;18.694;2023-04-24T02:34:52;9.60;99.90
25825;DHT22;13658;44.534;18.694;2023-04-24T02:37:18;9.60;99.90
25825;DHT22;13658;44.534;18.694;2023-04-24T02:39:44;9.50;99.90
25825;DHT22;13658;44.534;18.694;2023-04-24T02:42:10;9.60;99.90
25825;DHT22;13658;44.534;18.694;2023-04-24T02:44:36;9.70;99.90
25825;DHT22;13658;44.534;18.694;2023-04-24T02:47:02;9.70;99.90
25825;DHT22;13658;44.534;18.694;2023-04-24T02:49:28;9.80;99.90
25825;DHT22;13658;44.534;18.694;2023-04-24T02:51:54;9.80;99.90
25825;DHT22;13658;44.534;18.694;2023-04-24T02:54:20;9.70;99.90
25825;DHT22;13658;44.534;18.694;2023-04-24T02:56:46;9.60;99.90
25825;DHT22;13658;44.534;18.694;2023-04-24T02:59:12;9.40;99.90
25825;DHT22;13658;44.534;18.694;2023-04-24T03:01:38;9.40;99.90
25825;DHT22;13658;44.534;18.694;2023-04-24T03:04:04;9.50;99.90
25825;DHT22;13658;44.534;18.694;2023-04-24T03:06:29;9.60;99.90
25825;DHT22;13658;44.534;18.694;2023-04-24T03:08:58;9.60;99.90
25825;DHT22;13658;44.534;18.694;2023-04-24T03:11:26;9.70;99.90
25825;DHT22;13658;44.534;18.694;2023-04-24T03:13:52;9.60;99.90
25825;DHT22;13658;44.534;18.694;2023-04-24T03:16:19;9.60;99.90
25825;DHT22;13658;44.534;18.694;2023-04-24T03:18:46;9.80;99.90
25825;DHT22;13658;44.534;18.694;2023-04-24T03:21:12;9.90;99.90
25825;DHT22;13658;44.534;18.694;2023-04-24T03:23:38;9.90;99.90
25825;DHT22;13658;44.534;18.694;2023-04-24T03:26:04;10.00;99.90
25825;DHT22;13658;44.534;18.694;2023-04-24T03:28:32;10.00;99.90
25825;DHT22;13658;44.534;18.694;2023-04-24T03:31:03;9.90;99.90
25825;DHT22;13658;44.534;18.694;2023-04-24T03:33:32;9.80;99.90
25825;DHT22;13658;44.534;18.694;2023-04-24T03:36:00;9.70;99.90
25825;DHT22;13658;44.534;18.694;2023-04-24T03:38:33;9.70;99.90
25825;DHT22;13658;44.534;18.694;2023-04-24T03:41:04;9.70;99.90
25825;DHT22;13658;44.534;18.694;2023-04-24T03:43:45;9.80;99.90
25825;DHT22;13658;44.534;18.694;2023-04-24T03:46:11;9.90;99.90
25825;DHT22;13658;44.534;18.694;2023-04-24T03:48:42;10.10;99.90
25825;DHT22;13658;44.534;18.694;2023-04-24T03:51:09;10.10;99.90
25825;DHT22;13658;44.534;18.694;2023-04-24T03:53:38;10.10;99.90
25825;DHT22;13658;44.534;18.694;2023-04-24T03:56:04;10.10;99.90
25825;DHT22;13658;44.534;18.694;2023-04-24T03:58:32;10.00;99.90
25825;DHT22;13658;44.534;18.694;2023-04-24T04:00:59;10.00;99.90
25825;DHT22;13658;44.534;18.694;2023-04-24T04:03:54;10.00;99.90
25825;DHT22;13658;44.534;18.694;2023-04-24T04:06:23;10.10;99.90
25825;DHT22;13658;44.534;18.694;2023-04-24T04:08:51;10.10;99.90
25825;DHT22;13658;44.534;18.694;2023-04-24T04:11:17;10.10;99.90
25825;DHT22;13658;44.534;18.694;2023-04-24T04:13:44;10.00;99.90
25825;DHT22;13658;44.534;18.694;2023-04-24T04:16:11;9.90;99.90
25825;DHT22;13658;44.534;18.694;2023-04-24T04:18:37;9.80;99.90
25825;DHT22;13658;44.534;18.694;2023-04-24T04:21:06;9.80;99.90
25825;DHT22;13658;44.534;18.694;2023-04-24T04:23:32;9.80;99.90
25825;DHT22;13658;44.534;18.694;2023-04-24T04:26:07;9.90;99.90
25825;DHT22;13658;44.534;18.694;2023-04-24T04:28:53;10.00;99.90
25825;DHT22;13658;44.534;18.694;2023-04-24T04:31:20;10.00;99.90
25825;DHT22;13658;44.534;18.694;2023-04-24T04:33:47;10.00;99.90
25825;DHT22;13658;44.534;18.694;2023-04-24T04:36:13;10.10;99.90
25825;DHT22;13658;44.534;18.694;2023-04-24T04:38:45;10.10;99.90
25825;DHT22;13658;44.534;18.694;2023-04-24T04:41:22;10.20;99.90
25825;DHT22;13658;44.534;18.694;2023-04-24T04:43:49;10.20;99.90
25825;DHT22;13658;44.534;18.694;2023-04-24T04:46:16;10.40;99.90
25825;DHT22;13658;44.534;18.694;2023-04-24T04:49:08;10.30;99.90
25825;DHT22;13658;44.534;18.694;2023-04-24T04:51:35;10.40;99.90
25825;DHT22;13658;44.534;18.694;2023-04-24T04:54:01;10.50;99.90
25825;DHT22;13658;44.534;18.694;2023-04-24T04:56:28;10.60;99.90
25825;DHT22;13658;44.534;18.694;2023-04-24T04:58:56;10.70;99.90
25825;DHT22;13658;44.534;18.694;2023-04-24T05:01:22;10.80;99.90
25825;DHT22;13658;44.534;18.694;2023-04-24T05:03:49;10.80;99.90
25825;DHT22;13658;44.534;18.694;2023-04-24T05:06:16;10.90;99.90
25825;DHT22;13658;44.534;18.694;2023-04-24T05:08:44;11.00;99.90
25825;DHT22;13658;44.534;18.694;2023-04-24T05:11:20;11.10;99.90
25825;DHT22;13658;44.534;18.694;2023-04-24T05:13:47;11.20;99.90
25825;DHT22;13658;44.534;18.694;2023-04-24T05:16:18;11.30;99.90
25825;DHT22;13658;44.534;18.694;2023-04-24T05:18:45;11.50;99.90
25825;DHT22;13658;44.534;18.694;2023-04-24T05:21:14;11.50;99.90
25825;DHT22;13658;44.534;18.694;2023-04-24T05:23:45;11.70;99.90
25825;DHT22;13658;44.534;18.694;2023-04-24T05:26:15;11.80;99.90
25825;DHT22;13658;44.534;18.694;2023-04-24T05:28:41;12.00;99.90
25825;DHT22;13658;44.534;18.694;2023-04-24T05:31:11;12.10;99.90
25825;DHT22;13658;44.534;18.694;2023-04-24T05:33:38;12.30;99.90
25825;DHT22;13658;44.534;18.694;2023-04-24T05:36:04;12.40;99.90
25825;DHT22;13658;44.534;18.694;2023-04-24T05:38:31;12.50;99.90
25825;DHT22;13658;44.534;18.694;2023-04-24T05:40:58;12.60;99.90
25825;DHT22;13658;44.534;18.694;2023-04-24T05:43:23;12.70;99.90
25825;DHT22;13658;44.534;18.694;2023-04-24T05:45:49;12.70;99.90
25825;DHT22;13658;44.534;18.694;2023-04-24T05:48:17;12.70;99.90
25825;DHT22;13658;44.534;18.694;2023-04-24T05:50:43;12.70;99.90
25825;DHT22;13658;44.534;18.694;2023-04-24T05:53:11;12.60;99.90
25825;DHT22;13658;44.534;18.694;2023-04-24T05:55:37;12.70;99.90
25825;DHT22;13658;44.534;18.694;2023-04-24T05:58:03;12.70;99.90
25825;DHT22;13658;44.534;18.694;2023-04-24T06:00:30;12.70;99.90
25825;DHT22;13658;44.534;18.694;2023-04-24T06:03:04;12.70;99.90
25825;DHT22;13658;44.534;18.694;2023-04-24T06:05:30;12.70;99.90
25825;DHT22;13658;44.534;18.694;2023-04-24T06:07:56;12.70;99.90
25825;DHT22;13658;44.534;18.694;2023-04-24T06:10:25;12.70;99.90
25825;DHT22;13658;44.534;18.694;2023-04-24T06:12:51;12.70;99.90
25825;DHT22;13658;44.534;18.694;2023-04-24T06:15:18;12.60;99.90
25825;DHT22;13658;44.534;18.694;2023-04-24T06:17:55;12.60;99.90
25825;DHT22;13658;44.534;18.694;2023-04-24T06:20:22;12.60;99.90
25825;DHT22;13658;44.534;18.694;2023-04-24T06:22:48;12.60;99.90
25825;DHT22;13658;44.534;18.694;2023-04-24T06:25:14;12.60;99.90
25825;DHT22;13658;44.534;18.694;2023-04-24T06:27:40;12.50;99.90
25825;DHT22;13658;44.534;18.694;2023-04-24T06:30:08;12.50;99.90
25825;DHT22;13658;44.534;18.694;2023-04-24T06:32:34;12.50;99.90
25825;DHT22;13658;44.534;18.694;2023-04-24T06:35:00;12.50;99.90
25825;DHT22;13658;44.534;18.694;2023-04-24T06:37:26;12.60;99.90
25825;DHT22;13658;44.534;18.694;2023-04-24T06:39:53;12.60;99.90
25825;DHT22;13658;44.534;18.694;2023-04-24T06:42:18;12.70;99.90
25825;DHT22;13658;44.534;18.694;2023-04-24T06:44:49;12.80;99.90
25825;DHT22;13658;44.534;18.694;2023-04-24T06:47:15;12.80;99.90
25825;DHT22;13658;44.534;18.694;2023-04-24T06:49:42;12.70;99.90
25825;DHT22;13658;44.534;18.694;2023-04-24T06:52:08;12.70;99.90
25825;DHT22;13658;44.534;18.694;2023-04-24T06:54:35;12.60;99.90
25825;DHT22;13658;44.534;18.694;2023-04-24T06:57:01;12.50;99.90
25825;DHT22;13658;44.534;18.694;2023-04-24T06:59:29;12.50;99.90
25825;DHT22;13658;44.534;18.694;2023-04-24T07:01:56;12.40;99.90
25825;DHT22;13658;44.534;18.694;2023-04-24T07:04:22;12.50;99.90
25825;DHT22;13658;44.534;18.694;2023-04-24T07:06:48;12.40;99.90
25825;DHT22;13658;44.534;18.694;2023-04-24T07:09:19;12.60;99.90
25825;DHT22;13658;44.534;18.694;2023-04-24T07:11:46;12.80;99.90
25825;DHT22;13658;44.534;18.694;2023-04-24T07:14:12;12.80;99.90
25825;DHT22;13658;44.534;18.694;2023-04-24T07:16:38;12.90;99.90
25825;DHT22;13658;44.534;18.694;2023-04-24T07:19:05;13.00;99.90
25825;DHT22;13658;44.534;18.694;2023-04-24T07:21:31;13.10;99.90
25825;DHT22;13658;44.534;18.694;2023-04-24T07:23:58;13.20;99.90
25825;DHT22;13658;44.534;18.694;2023-04-24T07:26:26;13.30;99.90
25825;DHT22;13658;44.534;18.694;2023-04-24T07:28:52;13.40;99.90
25825;DHT22;13658;44.534;18.694;2023-04-24T07:31:18;13.50;99.90
25825;DHT22;13658;44.534;18.694;2023-04-24T07:33:44;13.70;99.90
25825;DHT22;13658;44.534;18.694;2023-04-24T07:36:11;13.70;99.90
25825;DHT22;13658;44.534;18.694;2023-04-24T07:38:46;13.80;99.90
25825;DHT22;13658;44.534;18.694;2023-04-24T07:41:13;13.70;99.90
25825;DHT22;13658;44.534;18.694;2023-04-24T07:43:39;13.80;99.90
25825;DHT22;13658;44.534;18.694;2023-04-24T07:46:06;13.90;99.90
25825;DHT22;13658;44.534;18.694;2023-04-24T07:48:33;14.00;99.90
25825;DHT22;13658;44.534;18.694;2023-04-24T07:50:59;14.30;99.90
25825;DHT22;13658;44.534;18.694;2023-04-24T07:53:25;14.60;99.90
25825;DHT22;13658;44.534;18.694;2023-04-24T07:55:51;14.70;99.90
25825;DHT22;13658;44.534;18.694;2023-04-24T07:58:17;14.80;99.90
25825;DHT22;13658;44.534;18.694;2023-04-24T08:00:43;15.10;99.90
25825;DHT22;13658;44.534;18.694;2023-04-24T08:03:09;15.40;99.90
25825;DHT22;13658;44.534;18.694;2023-04-24T08:05:35;15.50;99.90
25825;DHT22;13658;44.534;18.694;2023-04-24T08:08:01;15.70;99.90
25825;DHT22;13658;44.534;18.694;2023-04-24T08:10:27;15.90;99.90
25825;DHT22;13658;44.534;18.694;2023-04-24T08:12:53;16.10;99.90
25825;DHT22;13658;44.534;18.694;2023-04-24T08:15:18;16.20;99.90
25825;DHT22;13658;44.534;18.694;2023-04-24T08:17:44;16.40;99.90
25825;DHT22;13658;44.534;18.694;2023-04-24T08:20:11;16.60;99.90
25825;DHT22;13658;44.534;18.694;2023-04-24T08:22:41;16.90;99.90
25825;DHT22;13658;44.534;18.694;2023-04-24T08:25:09;17.20;99.90
25825;DHT22;13658;44.534;18.694;2023-04-24T08:27:35;17.50;99.90
25825;DHT22;13658;44.534;18.694;2023-04-24T08:30:03;17.60;99.90
25825;DHT22;13658;44.534;18.694;2023-04-24T08:32:29;17.90;99.90
25825;DHT22;13658;44.534;18.694;2023-04-24T08:34:56;17.90;99.90
25825;DHT22;13658;44.534;18.694;2023-04-24T08:37:23;18.10;99.90
25825;DHT22;13658;44.534;18.694;2023-04-24T08:39:51;18.30;99.90
25825;DHT22;13658;44.534;18.694;2023-04-24T08:42:18;18.50;99.90
25825;DHT22;13658;44.534;18.694;2023-04-24T08:44:45;18.50;99.90
25825;DHT22;13658;44.534;18.694;2023-04-24T08:47:12;18.70;99.90
25825;DHT22;13658;44.534;18.694;2023-04-24T08:49:38;18.90;99.90
25825;DHT22;13658;44.534;18.694;2023-04-24T08:52:05;19.00;99.90
25825;DHT22;13658;44.534;18.694;2023-04-24T08:54:33;19.10;99.90
25825;DHT22;13658;44.534;18.694;2023-04-24T08:57:00;19.30;99.90
25825;DHT22;13658;44.534;18.694;2023-04-24T08:59:31;19.40;99.90
25825;DHT22;13658;44.534;18.694;2023-04-24T09:01:57;19.40;99.90
25825;DHT22;13658;44.534;18.694;2023-04-24T09:04:24;19.20;99.90
25825;DHT22;13658;44.534;18.694;2023-04-24T09:06:52;19.30;99.90
25825;DHT22;13658;44.534;18.694;2023-04-24T09:09:21;19.20;99.90
25825;DHT22;13658;44.534;18.694;2023-04-24T09:11:53;19.40;99.90
25825;DHT22;13658;44.534;18.694;2023-04-24T09:14:21;19.40;99.90
25825;DHT22;13658;44.534;18.694;2023-04-24T09:16:49;19.40;99.90
25825;DHT22;13658;44.534;18.694;2023-04-24T09:19:16;19.50;99.90
25825;DHT22;13658;44.534;18.694;2023-04-24T09:21:45;19.60;99.90
25825;DHT22;13658;44.534;18.694;2023-04-24T09:24:21;19.60;99.90
25825;DHT22;13658;44.534;18.694;2023-04-24T09:26:58;19.60;99.90
25825;DHT22;13658;44.534;18.694;2023-04-24T09:29:27;19.70;99.90
25825;DHT22;13658;44.534;18.694;2023-04-24T09:31:53;19.80;99.90
25825;DHT22;13658;44.534;18.694;2023-04-24T09:34:24;20.00;99.90
25825;DHT22;13658;44.534;18.694;2023-04-24T09:36:50;20.20;99.90
25825;DHT22;13658;44.534;18.694;2023-04-24T09:39:17;20.30;99.90
25825;DHT22;13658;44.534;18.694;2023-04-24T09:41:53;20.20;99.90
25825;DHT22;13658;44.534;18.694;2023-04-24T09:44:24;19.90;99.90
25825;DHT22;13658;44.534;18.694;2023-04-24T09:46:58;19.90;99.90
25825;DHT22;13658;44.534;18.694;2023-04-24T09:49:25;20.10;99.90
25825;DHT22;13658;44.534;18.694;2023-04-24T09:51:52;20.20;99.90
25825;DHT22;13658;44.534;18.694;2023-04-24T09:54:28;20.20;99.90
25825;DHT22;13658;44.534;18.694;2023-04-24T09:56:55;20.30;99.90
25825;DHT22;13658;44.534;18.694;2023-04-24T09:59:22;20.40;99.90
25825;DHT22;13658;44.534;18.694;2023-04-24T10:01:48;20.40;99.90
25825;DHT22;13658;44.534;18.694;2023-04-24T10:04:22;20.10;99.90
25825;DHT22;13658;44.534;18.694;2023-04-24T10:06:50;20.00;99.90
25825;DHT22;13658;44.534;18.694;2023-04-24T10:09:18;20.10;99.90
25825;DHT22;13658;44.534;18.694;2023-04-24T10:11:46;20.20;99.90
25825;DHT22;13658;44.534;18.694;2023-04-24T10:14:18;20.20;99.90
25825;DHT22;13658;44.534;18.694;2023-04-24T10:16:45;20.30;99.90
25825;DHT22;13658;44.534;18.694;2023-04-24T10:19:13;20.30;99.90
25825;DHT22;13658;44.534;18.694;2023-04-24T10:21:41;20.40;99.90
25825;DHT22;13658;44.534;18.694;2023-04-24T10:24:08;20.50;99.90
25825;DHT22;13658;44.534;18.694;2023-04-24T10:26:36;20.70;99.90
25825;DHT22;13658;44.534;18.694;2023-04-24T10:29:05;21.20;99.90
25825;DHT22;13658;44.534;18.694;2023-04-24T10:31:37;21.50;99.90
25825;DHT22;13658;44.534;18.694;2023-04-24T10:34:05;21.60;99.90
25825;DHT22;13658;44.534;18.694;2023-04-24T10:36:38;22.10;99.90
25825;DHT22;13658;44.534;18.694;2023-04-24T10:39:09;21.80;99.90
25825;DHT22;13658;44.534;18.694;2023-04-24T10:41:37;21.50;99.90
25825;DHT22;13658;44.534;18.694;2023-04-24T10:44:12;21.60;99.90
25825;DHT22;13658;44.534;18.694;2023-04-24T10:46:42;22.10;99.90
25825;DHT22;13658;44.534;18.694;2023-04-24T10:49:09;22.30;99.90
25825;DHT22;13658;44.534;18.694;2023-04-24T10:51:49;22.30;99.90
25825;DHT22;13658;44.534;18.694;2023-04-24T10:54:23;22.60;99.90
25825;DHT22;13658;44.534;18.694;2023-04-24T10:56:50;22.80;99.90
25825;DHT22;13658;44.534;18.694;2023-04-24T10:59:27;23.10;99.90
25825;DHT22;13658;44.534;18.694;2023-04-24T11:02:00;23.10;99.90
25825;DHT22;13658;44.534;18.694;2023-04-24T11:04:30;23.00;99.90
25825;DHT22;13658;44.534;18.694;2023-04-24T11:06:57;22.90;99.90
25825;DHT22;13658;44.534;18.694;2023-04-24T11:09:27;22.80;99.90
25825;DHT22;13658;44.534;18.694;2023-04-24T11:12:06;22.70;99.90
25825;DHT22;13658;44.534;18.694;2023-04-24T11:17:35;22.30;99.90
25825;DHT22;13658;44.534;18.694;2023-04-24T11:20:10;22.40;99.90
25825;DHT22;13658;44.534;18.694;2023-04-24T11:22:38;22.50;99.90
25825;DHT22;13658;44.534;18.694;2023-04-24T11:25:10;22.50;99.90
25825;DHT22;13658;44.534;18.694;2023-04-24T11:27:44;22.70;99.90
25825;DHT22;13658;44.534;18.694;2023-04-24T11:30:12;22.70;99.90
25825;DHT22;13658;44.534;18.694;2023-04-24T11:32:43;22.60;99.90
25825;DHT22;13658;44.534;18.694;2023-04-24T11:35:15;22.70;99.90
25825;DHT22;13658;44.534;18.694;2023-04-24T11:37:48;22.80;99.90
25825;DHT22;13658;44.534;18.694;2023-04-24T11:40:16;22.70;99.90
25825;DHT22;13658;44.534;18.694;2023-04-24T11:42:44;22.80;99.90
25825;DHT22;13658;44.534;18.694;2023-04-24T11:45:20;22.90;99.90
25825;DHT22;13658;44.534;18.694;2023-04-24T11:47:47;22.90;99.90
25825;DHT22;13658;44.534;18.694;2023-04-24T11:50:14;22.80;99.90
25825;DHT22;13658;44.534;18.694;2023-04-24T11:52:41;22.70;99.90
25825;DHT22;13658;44.534;18.694;2023-04-24T11:55:26;22.80;99.90
25825;DHT22;13658;44.534;18.694;2023-04-24T11:57:58;22.80;99.90
25825;DHT22;13658;44.534;18.694;2023-04-24T12:00:26;22.80;99.90
25825;DHT22;13658;44.534;18.694;2023-04-24T12:03:07;23.20;99.90
25825;DHT22;13658;44.534;18.694;2023-04-24T12:05:33;23.10;99.90
25825;DHT22;13658;44.534;18.694;2023-04-24T12:08:00;23.10;99.90
25825;DHT22;13658;44.534;18.694;2023-04-24T12:10:28;22.90;99.90
25825;DHT22;13658;44.534;18.694;2023-04-24T12:12:56;23.10;99.90
25825;DHT22;13658;44.534;18.694;2023-04-24T12:15:23;23.30;99.90
25825;DHT22;13658;44.534;18.694;2023-04-24T12:17:52;23.30;99.90
25825;DHT22;13658;44.534;18.694;2023-04-24T12:20:25;23.30;99.90
25825;DHT22;13658;44.534;18.694;2023-04-24T12:22:55;23.30;99.90
25825;DHT22;13658;44.534;18.694;2023-04-24T12:25:30;23.10;99.90
25825;DHT22;13658;44.534;18.694;2023-04-24T12:30:29;22.70;99.90
25825;DHT22;13658;44.534;18.694;2023-04-24T12:32:58;22.80;99.90
25825;DHT22;13658;44.534;18.694;2023-04-24T12:35:27;22.90;99.90
25825;DHT22;13658;44.534;18.694;2023-04-24T12:37:53;23.00;99.90
25825;DHT22;13658;44.534;18.694;2023-04-24T12:40:21;22.90;99.90
25825;DHT22;13658;44.534;18.694;2023-04-24T12:42:51;22.80;99.90
25825;DHT22;13658;44.534;18.694;2023-04-24T12:45:18;22.90;99.90
25825;DHT22;13658;44.534;18.694;2023-04-24T12:47:46;23.10;99.90
25825;DHT22;13658;44.534;18.694;2023-04-24T12:50:14;23.30;99.90
25825;DHT22;13658;44.534;18.694;2023-04-24T12:52:45;23.30;99.90
25825;DHT22;13658;44.534;18.694;2023-04-24T12:55:11;23.30;99.90
25825;DHT22;13658;44.534;18.694;2023-04-24T12:57:39;23.50;99.90
25825;DHT22;13658;44.534;18.694;2023-04-24T13:00:09;23.10;99.90
25825;DHT22;13658;44.534;18.694;2023-04-24T13:02:39;23.00;99.90
25825;DHT22;13658;44.534;18.694;2023-04-24T13:05:09;23.00;99.90
25825;DHT22;13658;44.534;18.694;2023-04-24T13:07:38;22.70;99.90
25825;DHT22;13658;44.534;18.694;2023-04-24T13:10:06;22.70;99.90
25825;DHT22;13658;44.534;18.694;2023-04-24T13:12:32;22.70;99.90
25825;DHT22;13658;44.534;18.694;2023-04-24T13:14:58;22.80;99.90
25825;DHT22;13658;44.534;18.694;2023-04-24T13:17:24;22.70;99.90
25825;DHT22;13658;44.534;18.694;2023-04-24T13:19:51;22.70;99.90
25825;DHT22;13658;44.534;18.694;2023-04-24T13:22:17;22.70;99.90
25825;DHT22;13658;44.534;18.694;2023-04-24T13:24:46;22.60;99.90
25825;DHT22;13658;44.534;18.694;2023-04-24T13:27:15;22.60;99.90
25825;DHT22;13658;44.534;18.694;2023-04-24T13:29:41;22.60;99.90
25825;DHT22;13658;44.534;18.694;2023-04-24T13:32:08;22.70;99.90
25825;DHT22;13658;44.534;18.694;2023-04-24T13:34:34;22.60;99.90
25825;DHT22;13658;44.534;18.694;2023-04-24T13:37:01;22.70;99.90
25825;DHT22;13658;44.534;18.694;2023-04-24T13:39:29;22.50;99.90
25825;DHT22;13658;44.534;18.694;2023-04-24T13:41:55;22.40;99.90
25825;DHT22;13658;44.534;18.694;2023-04-24T13:44:22;22.30;99.90
25825;DHT22;13658;44.534;18.694;2023-04-24T13:46:51;22.20;99.90
25825;DHT22;13658;44.534;18.694;2023-04-24T13:49:20;22.10;99.90
25825;DHT22;13658;44.534;18.694;2023-04-24T13:51:46;22.20;99.90
25825;DHT22;13658;44.534;18.694;2023-04-24T13:54:12;22.20;99.90
25825;DHT22;13658;44.534;18.694;2023-04-24T13:56:39;22.20;99.90
25825;DHT22;13658;44.534;18.694;2023-04-24T13:59:06;22.00;99.90
25825;DHT22;13658;44.534;18.694;2023-04-24T14:01:32;22.10;99.90
25825;DHT22;13658;44.534;18.694;2023-04-24T14:03:58;22.00;99.90
25825;DHT22;13658;44.534;18.694;2023-04-24T14:06:25;21.80;99.90
25825;DHT22;13658;44.534;18.694;2023-04-24T14:08:52;21.70;99.90
25825;DHT22;13658;44.534;18.694;2023-04-24T14:11:19;21.60;99.90
25825;DHT22;13658;44.534;18.694;2023-04-24T14:13:45;21.50;99.90
25825;DHT22;13658;44.534;18.694;2023-04-24T14:16:11;21.60;99.90
25825;DHT22;13658;44.534;18.694;2023-04-24T14:18:37;21.60;99.90
25825;DHT22;13658;44.534;18.694;2023-04-24T14:21:04;21.60;99.90
25825;DHT22;13658;44.534;18.694;2023-04-24T14:23:31;21.50;99.90
25825;DHT22;13658;44.534;18.694;2023-04-24T14:25:58;21.60;99.90
25825;DHT22;13658;44.534;18.694;2023-04-24T14:28:24;21.60;99.90
25825;DHT22;13658;44.534;18.694;2023-04-24T14:30:51;21.50;99.90
25825;DHT22;13658;44.534;18.694;2023-04-24T14:33:17;21.50;99.90
25825;DHT22;13658;44.534;18.694;2023-04-24T14:35:43;21.50;99.90
25825;DHT22;13658;44.534;18.694;2023-04-24T14:38:10;21.60;99.90
25825;DHT22;13658;44.534;18.694;2023-04-24T14:40:37;21.70;99.90
25825;DHT22;13658;44.534;18.694;2023-04-24T14:43:03;21.80;99.90
25825;DHT22;13658;44.534;18.694;2023-04-24T14:45:29;21.70;99.90
25825;DHT22;13658;44.534;18.694;2023-04-24T14:47:55;21.80;99.90
25825;DHT22;13658;44.534;18.694;2023-04-24T14:50:22;21.70;99.90
25825;DHT22;13658;44.534;18.694;2023-04-24T14:52:48;21.70;99.90
25825;DHT22;13658;44.534;18.694;2023-04-24T14:55:14;21.60;99.90
25825;DHT22;13658;44.534;18.694;2023-04-24T14:57:40;21.60;99.90
25825;DHT22;13658;44.534;18.694;2023-04-24T15:00:07;21.50;99.90
25825;DHT22;13658;44.534;18.694;2023-04-24T15:02:36;21.30;99.90
25825;DHT22;13658;44.534;18.694;2023-04-24T15:05:06;21.20;99.90
25825;DHT22;13658;44.534;18.694;2023-04-24T15:07:32;21.20;99.90
25825;DHT22;13658;44.534;18.694;2023-04-24T15:09:58;21.10;99.90
25825;DHT22;13658;44.534;18.694;2023-04-24T15:12:24;21.10;99.90
25825;DHT22;13658;44.534;18.694;2023-04-24T15:14:51;20.90;99.90
25825;DHT22;13658;44.534;18.694;2023-04-24T15:17:17;20.70;99.90
25825;DHT22;13658;44.534;18.694;2023-04-24T15:19:42;20.60;99.90
25825;DHT22;13658;44.534;18.694;2023-04-24T15:22:10;20.60;99.90
25825;DHT22;13658;44.534;18.694;2023-04-24T15:24:36;20.60;99.90
25825;DHT22;13658;44.534;18.694;2023-04-24T15:27:02;20.60;99.90